WMT638 LATI-LFOB
Flight info
| Callsign | WMT638 |
|---|---|
| Flight time | N/A |
| Altitude | 32000 |
| Route | DIRES DCT EBELA DCT KOFER DCT EDUGI DCT BOA/N0456F340 DCT BETMU DCT OSBUL DCT AOSTA DCT ORSUD DCT MOLUS DCT UNKIR DCT GIVRI DCT TINIL |
| Aircraft | A21N/M-SDE2E3FGHIRWXY/LB1 |
Departure
| Time | N/A |
|---|---|
| Airport | Tirana International Airport Mother Teresa (LATI) |
Arrival
| Time | 2026-04-20 12:23 |
|---|---|
| Airport | Beauvais-Tillé airport (LFOB) |
| Time | Latitude | Longitude | Altitude | Speed | Heading |
|---|---|---|---|---|---|
| 2026-04-20 11:30 | 46.69378 | 6.04206 | 32054 ft | 396 kts | 297° |
| 2026-04-20 11:30 | 46.70294 | 6.01835 | 32056 ft | 396 kts | 297° |
| 2026-04-20 11:31 | 46.72980 | 5.94873 | 32054 ft | 396 kts | 297° |
| 2026-04-20 11:31 | 46.75693 | 5.87878 | 32051 ft | 396 kts | 297° |
| 2026-04-20 11:32 | 46.78404 | 5.80884 | 32054 ft | 396 kts | 297° |
| 2026-04-20 11:32 | 46.81434 | 5.74144 | 32049 ft | 400 kts | 308° |
| 2026-04-20 11:33 | 46.85860 | 5.69156 | 32060 ft | 411 kts | 325° |
| 2026-04-20 11:33 | 46.90913 | 5.65155 | 32057 ft | 413 kts | 326° |
| 2026-04-20 11:34 | 46.95956 | 5.61117 | 32077 ft | 412 kts | 325° |
| 2026-04-20 11:34 | 47.00986 | 5.57066 | 32082 ft | 412 kts | 325° |
| 2026-04-20 11:35 | 47.05986 | 5.53049 | 32109 ft | 412 kts | 325° |
| 2026-04-20 11:35 | 47.11004 | 5.48950 | 32077 ft | 412 kts | 325° |
| 2026-04-20 11:36 | 47.16032 | 5.44868 | 32082 ft | 413 kts | 325° |
| 2026-04-20 11:36 | 47.21053 | 5.40799 | 32089 ft | 410 kts | 325° |
| 2026-04-20 11:37 | 47.26057 | 5.36727 | 32085 ft | 411 kts | 325° |
| 2026-04-20 11:37 | 47.33565 | 5.30589 | 32075 ft | 411 kts | 325° |
| 2026-04-20 11:38 | 47.38539 | 5.26516 | 32089 ft | 412 kts | 325° |
| 2026-04-20 11:38 | 47.43564 | 5.22411 | 32088 ft | 412 kts | 325° |
| 2026-04-20 11:39 | 47.48575 | 5.18288 | 32105 ft | 412 kts | 325° |
| 2026-04-20 11:39 | 47.51073 | 5.16231 | 31903 ft | 408 kts | 325° |
| 2026-04-20 11:39 | 47.53519 | 5.14221 | 31435 ft | 406 kts | 325° |
| 2026-04-20 11:40 | 47.55988 | 5.12192 | 30773 ft | 404 kts | 325° |
| 2026-04-20 11:40 | 47.58421 | 5.10112 | 30037 ft | 401 kts | 321° |
| 2026-04-20 11:40 | 47.60639 | 5.07647 | 29130 ft | 398 kts | 315° |
| 2026-04-20 11:40 | 47.62767 | 5.04999 | 28267 ft | 398 kts | 315° |
| 2026-04-20 11:41 | 47.64878 | 5.02333 | 27447 ft | 397 kts | 315° |
| 2026-04-20 11:41 | 47.66983 | 4.99681 | 26624 ft | 398 kts | 315° |
| 2026-04-20 11:41 | 47.69096 | 4.97023 | 25802 ft | 399 kts | 316° |
| 2026-04-20 11:41 | 47.71215 | 4.94360 | 25016 ft | 399 kts | 316° |
| 2026-04-20 11:42 | 47.73342 | 4.91690 | 24259 ft | 401 kts | 316° |
| 2026-04-20 11:42 | 47.75459 | 4.89036 | 23743 ft | 405 kts | 316° |
| 2026-04-20 11:42 | 47.77612 | 4.86326 | 23306 ft | 409 kts | 316° |
| 2026-04-20 11:42 | 47.79813 | 4.83533 | 22891 ft | 415 kts | 316° |
| 2026-04-20 11:43 | 47.81989 | 4.80792 | 22431 ft | 401 kts | 316° |
| 2026-04-20 11:43 | 47.84094 | 4.78133 | 21509 ft | 395 kts | 316° |
| 2026-04-20 11:43 | 47.86163 | 4.75509 | 20521 ft | 394 kts | 316° |
| 2026-04-20 11:43 | 47.88249 | 4.72853 | 19503 ft | 394 kts | 316° |
| 2026-04-20 11:44 | 47.90332 | 4.70196 | 18499 ft | 393 kts | 316° |
| 2026-04-20 11:44 | 47.92417 | 4.67543 | 17402 ft | 393 kts | 317° |
| 2026-04-20 11:44 | 47.94518 | 4.64874 | 16794 ft | 399 kts | 317° |
| 2026-04-20 11:44 | 47.96631 | 4.62187 | 16466 ft | 398 kts | 317° |
| 2026-04-20 11:45 | 47.98735 | 4.59497 | 16190 ft | 397 kts | 317° |
| 2026-04-20 11:45 | 48.00814 | 4.56851 | 15934 ft | 396 kts | 317° |
| 2026-04-20 11:45 | 48.02902 | 4.54171 | 15680 ft | 395 kts | 317° |
| 2026-04-20 11:45 | 48.04994 | 4.51495 | 15441 ft | 394 kts | 317° |
| 2026-04-20 11:46 | 48.07073 | 4.48827 | 15203 ft | 394 kts | 317° |
| 2026-04-20 11:46 | 48.09154 | 4.46165 | 14965 ft | 393 kts | 317° |
| 2026-04-20 11:46 | 48.11230 | 4.43510 | 14731 ft | 392 kts | 317° |
| 2026-04-20 11:46 | 48.13336 | 4.40912 | 14499 ft | 392 kts | 321° |
| 2026-04-20 11:47 | 48.15549 | 4.38532 | 14301 ft | 389 kts | 322° |
| 2026-04-20 11:47 | 48.17750 | 4.36256 | 14079 ft | 389 kts | 327° |
| 2026-04-20 11:47 | 48.20135 | 4.34313 | 13858 ft | 389 kts | 330° |
| 2026-04-20 11:47 | 48.22535 | 4.32456 | 13613 ft | 388 kts | 330° |
| 2026-04-20 11:48 | 48.24933 | 4.30597 | 13373 ft | 387 kts | 330° |
| 2026-04-20 11:48 | 48.27319 | 4.28733 | 13131 ft | 386 kts | 330° |
| 2026-04-20 11:48 | 48.29700 | 4.26873 | 12883 ft | 386 kts | 330° |
| 2026-04-20 11:48 | 48.32050 | 4.25035 | 12645 ft | 385 kts | 331° |
| 2026-04-20 11:49 | 48.34429 | 4.23173 | 12414 ft | 384 kts | 330° |
| 2026-04-20 11:49 | 48.36781 | 4.21322 | 12192 ft | 376 kts | 330° |
| 2026-04-20 11:49 | 48.39049 | 4.19542 | 11955 ft | 357 kts | 331° |
| 2026-04-20 11:49 | 48.41196 | 4.17853 | 11715 ft | 339 kts | 331° |
| 2026-04-20 11:50 | 48.43239 | 4.16248 | 11480 ft | 323 kts | 331° |
| 2026-04-20 11:50 | 48.45192 | 4.14708 | 11241 ft | 309 kts | 331° |
| 2026-04-20 11:50 | 48.47026 | 4.13258 | 11114 ft | 292 kts | 331° |
| 2026-04-20 11:50 | 48.48767 | 4.11889 | 11100 ft | 275 kts | 331° |
| 2026-04-20 11:51 | 48.50460 | 4.10549 | 11113 ft | 274 kts | 331° |
| 2026-04-20 11:51 | 48.52156 | 4.09209 | 11141 ft | 274 kts | 331° |
| 2026-04-20 11:51 | 48.53844 | 4.07875 | 11152 ft | 274 kts | 331° |
| 2026-04-20 11:51 | 48.55519 | 4.06548 | 11157 ft | 274 kts | 331° |
| 2026-04-20 11:52 | 48.57206 | 4.05191 | 11159 ft | 274 kts | 330° |
| 2026-04-20 11:52 | 48.58613 | 4.04022 | 11175 ft | 274 kts | 329° |
| 2026-04-20 11:52 | 48.60273 | 4.02639 | 11171 ft | 274 kts | 330° |
| 2026-04-20 11:52 | 48.61943 | 4.01248 | 11169 ft | 274 kts | 329° |
| 2026-04-20 11:53 | 48.63613 | 3.99859 | 11167 ft | 274 kts | 330° |
| 2026-04-20 11:53 | 48.65283 | 3.98471 | 11167 ft | 274 kts | 329° |
| 2026-04-20 11:53 | 48.66860 | 3.96887 | 11168 ft | 273 kts | 320° |
| 2026-04-20 11:53 | 48.68319 | 3.95042 | 11170 ft | 273 kts | 319° |
| 2026-04-20 11:54 | 48.69762 | 3.93178 | 11167 ft | 273 kts | 319° |
| 2026-04-20 11:54 | 48.71208 | 3.91320 | 11167 ft | 273 kts | 319° |
| 2026-04-20 11:54 | 48.72654 | 3.89468 | 11168 ft | 273 kts | 319° |
| 2026-04-20 11:54 | 48.74107 | 3.87611 | 11167 ft | 273 kts | 319° |
| 2026-04-20 11:55 | 48.75558 | 3.85763 | 11167 ft | 273 kts | 319° |
| 2026-04-20 11:55 | 48.77010 | 3.83911 | 11168 ft | 273 kts | 319° |
| 2026-04-20 11:55 | 48.78463 | 3.82055 | 11167 ft | 273 kts | 319° |
| 2026-04-20 11:55 | 48.79911 | 3.80205 | 11167 ft | 273 kts | 319° |
| 2026-04-20 11:56 | 48.81363 | 3.78349 | 11167 ft | 273 kts | 319° |
| 2026-04-20 11:56 | 48.82814 | 3.76491 | 11167 ft | 273 kts | 319° |
| 2026-04-20 11:56 | 48.84263 | 3.74636 | 11165 ft | 273 kts | 319° |
| 2026-04-20 11:56 | 48.85719 | 3.72771 | 11168 ft | 273 kts | 319° |
| 2026-04-20 11:57 | 48.87190 | 3.70885 | 11168 ft | 273 kts | 319° |
| 2026-04-20 11:57 | 48.88621 | 3.69051 | 11168 ft | 273 kts | 319° |
| 2026-04-20 11:57 | 48.90072 | 3.67191 | 11169 ft | 273 kts | 319° |
| 2026-04-20 11:57 | 48.91524 | 3.65327 | 11169 ft | 273 kts | 319° |
| 2026-04-20 11:58 | 48.92975 | 3.63460 | 11169 ft | 273 kts | 319° |
| 2026-04-20 11:58 | 48.94421 | 3.61594 | 11168 ft | 273 kts | 319° |
| 2026-04-20 11:58 | 48.95871 | 3.59721 | 11168 ft | 273 kts | 319° |
| 2026-04-20 11:58 | 48.97320 | 3.57850 | 11169 ft | 273 kts | 319° |
| 2026-04-20 11:59 | 48.98772 | 3.55981 | 11170 ft | 273 kts | 319° |
| 2026-04-20 11:59 | 49.00225 | 3.54105 | 11169 ft | 273 kts | 319° |
| 2026-04-20 11:59 | 49.01678 | 3.52233 | 11169 ft | 273 kts | 319° |
| 2026-04-20 11:59 | 49.03135 | 3.50354 | 11175 ft | 274 kts | 319° |
| 2026-04-20 12:00 | 49.04583 | 3.48480 | 11178 ft | 273 kts | 319° |
| 2026-04-20 12:00 | 49.06025 | 3.46612 | 11178 ft | 272 kts | 319° |
| 2026-04-20 12:00 | 49.07468 | 3.44742 | 11180 ft | 272 kts | 319° |
| 2026-04-20 12:00 | 49.08918 | 3.42861 | 11181 ft | 272 kts | 319° |
| 2026-04-20 12:01 | 49.10361 | 3.40988 | 11181 ft | 272 kts | 319° |
| 2026-04-20 12:01 | 49.11808 | 3.39110 | 11178 ft | 272 kts | 319° |
| 2026-04-20 12:01 | 49.13251 | 3.37231 | 11178 ft | 272 kts | 319° |
| 2026-04-20 12:01 | 49.14691 | 3.35348 | 11181 ft | 272 kts | 319° |
| 2026-04-20 12:02 | 49.16130 | 3.33469 | 11181 ft | 272 kts | 319° |
| 2026-04-20 12:02 | 49.17573 | 3.31585 | 11182 ft | 272 kts | 319° |
| 2026-04-20 12:02 | 49.19016 | 3.29701 | 11181 ft | 272 kts | 319° |
| 2026-04-20 12:02 | 49.20456 | 3.27820 | 11180 ft | 272 kts | 319° |
| 2026-04-20 12:03 | 49.21898 | 3.25936 | 11182 ft | 272 kts | 319° |
| 2026-04-20 12:03 | 49.23339 | 3.24055 | 11183 ft | 272 kts | 319° |
| 2026-04-20 12:03 | 49.24783 | 3.22170 | 11182 ft | 272 kts | 319° |
| 2026-04-20 12:03 | 49.26226 | 3.20285 | 11190 ft | 273 kts | 319° |
| 2026-04-20 12:04 | 49.27671 | 3.18395 | 11188 ft | 273 kts | 319° |
| 2026-04-20 12:04 | 49.29117 | 3.16501 | 11187 ft | 274 kts | 319° |
| 2026-04-20 12:04 | 49.30566 | 3.14605 | 11187 ft | 274 kts | 319° |
| 2026-04-20 12:04 | 49.32012 | 3.12712 | 11188 ft | 274 kts | 319° |
| 2026-04-20 12:05 | 49.33456 | 3.10816 | 11159 ft | 273 kts | 319° |
| 2026-04-20 12:05 | 49.34877 | 3.08927 | 11039 ft | 273 kts | 317° |
| 2026-04-20 12:05 | 49.36066 | 3.06669 | 10825 ft | 274 kts | 301° |
| 2026-04-20 12:05 | 49.36956 | 3.04085 | 10594 ft | 274 kts | 298° |
| 2026-04-20 12:06 | 49.37811 | 3.01474 | 10353 ft | 274 kts | 298° |
| 2026-04-20 12:06 | 49.38664 | 2.98860 | 10092 ft | 274 kts | 298° |
| 2026-04-20 12:06 | 49.39513 | 2.96238 | 9784 ft | 274 kts | 298° |
| 2026-04-20 12:06 | 49.40359 | 2.93616 | 9469 ft | 274 kts | 298° |
| 2026-04-20 12:07 | 49.41201 | 2.91004 | 9206 ft | 273 kts | 298° |
| 2026-04-20 12:07 | 49.42046 | 2.88378 | 9164 ft | 274 kts | 298° |
| 2026-04-20 12:07 | 49.42888 | 2.85763 | 9174 ft | 274 kts | 298° |
| 2026-04-20 12:07 | 49.43732 | 2.83132 | 9189 ft | 274 kts | 298° |
| 2026-04-20 12:08 | 49.44571 | 2.80505 | 9194 ft | 274 kts | 297° |
| 2026-04-20 12:08 | 49.45413 | 2.77875 | 9197 ft | 274 kts | 298° |
| 2026-04-20 12:08 | 49.46253 | 2.75250 | 9199 ft | 274 kts | 297° |
| 2026-04-20 12:08 | 49.47096 | 2.72616 | 9198 ft | 274 kts | 297° |
| 2026-04-20 12:09 | 49.47938 | 2.69989 | 9200 ft | 274 kts | 298° |
| 2026-04-20 12:09 | 49.48779 | 2.67358 | 9190 ft | 274 kts | 297° |
| 2026-04-20 12:09 | 49.49609 | 2.64760 | 9204 ft | 274 kts | 297° |
| 2026-04-20 12:09 | 49.50187 | 2.61955 | 9202 ft | 277 kts | 285° |
| 2026-04-20 12:10 | 49.50658 | 2.59082 | 9207 ft | 276 kts | 287° |
| 2026-04-20 12:10 | 49.51132 | 2.56212 | 9209 ft | 277 kts | 287° |
| 2026-04-20 12:10 | 49.51596 | 2.53349 | 9210 ft | 275 kts | 287° |
| 2026-04-20 12:10 | 49.52056 | 2.50488 | 9215 ft | 276 kts | 286° |
| 2026-04-20 12:11 | 49.52533 | 2.47621 | 9220 ft | 277 kts | 287° |
| 2026-04-20 12:11 | 49.53006 | 2.44756 | 9221 ft | 275 kts | 287° |
| 2026-04-20 12:11 | 49.53458 | 2.41907 | 9219 ft | 274 kts | 287° |
| 2026-04-20 12:11 | 49.53913 | 2.39044 | 9221 ft | 275 kts | 286° |
| 2026-04-20 12:12 | 49.54385 | 2.36177 | 9221 ft | 275 kts | 287° |
| 2026-04-20 12:12 | 49.54841 | 2.33323 | 9223 ft | 274 kts | 287° |
| 2026-04-20 12:12 | 49.55305 | 2.30460 | 9225 ft | 277 kts | 287° |
| 2026-04-20 12:12 | 49.55784 | 2.27586 | 9227 ft | 276 kts | 287° |
| 2026-04-20 12:13 | 49.56248 | 2.24724 | 9229 ft | 275 kts | 287° |
| 2026-04-20 12:13 | 49.56709 | 2.21852 | 9222 ft | 277 kts | 286° |
| 2026-04-20 12:13 | 49.57179 | 2.18987 | 9226 ft | 276 kts | 287° |
| 2026-04-20 12:13 | 49.57658 | 2.16112 | 9227 ft | 277 kts | 287° |
| 2026-04-20 12:14 | 49.58144 | 2.13231 | 9228 ft | 277 kts | 287° |
| 2026-04-20 12:14 | 49.58627 | 2.10389 | 9191 ft | 277 kts | 287° |
| 2026-04-20 12:14 | 49.59097 | 2.07527 | 8894 ft | 275 kts | 287° |
| 2026-04-20 12:14 | 49.59553 | 2.04663 | 8340 ft | 277 kts | 287° |
| 2026-04-20 12:15 | 49.60012 | 2.01751 | 7694 ft | 282 kts | 286° |
| 2026-04-20 12:15 | 49.60555 | 1.98813 | 6966 ft | 287 kts | 296° |
| 2026-04-20 12:15 | 49.61691 | 1.96282 | 6192 ft | 290 kts | 317° |
| 2026-04-20 12:15 | 49.63169 | 1.94124 | 5382 ft | 297 kts | 321° |
| 2026-04-20 12:16 | 49.64729 | 1.91981 | 4619 ft | 302 kts | 321° |
| 2026-04-20 12:16 | 49.66115 | 1.89568 | 4160 ft | 300 kts | 303° |
| 2026-04-20 12:16 | 49.66787 | 1.86576 | 3864 ft | 295 kts | 279° |
| 2026-04-20 12:16 | 49.66643 | 1.83464 | 3558 ft | 290 kts | 255° |
| 2026-04-20 12:17 | 49.65710 | 1.80773 | 3400 ft | 285 kts | 229° |
| 2026-04-20 12:17 | 49.64119 | 1.79012 | 3357 ft | 282 kts | 198° |
| 2026-04-20 12:17 | 49.62209 | 1.78700 | 3343 ft | 275 kts | 169° |
| 2026-04-20 12:17 | 49.60374 | 1.79422 | 3331 ft | 267 kts | 155° |
| 2026-04-20 12:18 | 49.58846 | 1.80800 | 3251 ft | 245 kts | 136° |
| 2026-04-20 12:18 | 49.57677 | 1.82661 | 3172 ft | 240 kts | 125° |
| 2026-04-20 12:18 | 49.56821 | 1.84838 | 3093 ft | 234 kts | 113° |
| 2026-04-20 12:18 | 49.55964 | 1.86932 | 3003 ft | 231 kts | 119° |
| 2026-04-20 12:19 | 49.55092 | 1.88976 | 2984 ft | 229 kts | 120° |
| 2026-04-20 12:19 | 49.54244 | 1.90940 | 2973 ft | 212 kts | 119° |
| 2026-04-20 12:19 | 49.53428 | 1.92833 | 2972 ft | 212 kts | 120° |
| 2026-04-20 12:19 | 49.52632 | 1.94671 | 2829 ft | 201 kts | 120° |
| 2026-04-20 12:20 | 49.51885 | 1.96394 | 2630 ft | 183 kts | 119° |
| 2026-04-20 12:20 | 49.51205 | 1.97966 | 2393 ft | 171 kts | 119° |
| 2026-04-20 12:20 | 49.50557 | 1.99448 | 2226 ft | 168 kts | 118° |
| 2026-04-20 12:20 | 49.49874 | 2.01013 | 1927 ft | 175 kts | 119° |
| 2026-04-20 12:21 | 49.49217 | 2.02519 | 1696 ft | 163 kts | 117° |
| 2026-04-20 12:21 | 49.48617 | 2.03916 | 1483 ft | 150 kts | 118° |
| 2026-04-20 12:21 | 49.48052 | 2.05251 | 1195 ft | 141 kts | 117° |
| 2026-04-20 12:21 | 49.47527 | 2.06453 | 1026 ft | 136 kts | 119° |
| 2026-04-20 12:22 | 49.46998 | 2.07674 | 825 ft | 135 kts | 117° |
| 2026-04-20 12:22 | 49.46494 | 2.08869 | 632 ft | 135 kts | 117° |
| 2026-04-20 12:22 | 49.45971 | 2.10069 | 463 ft | 135 kts | 119° |
| 2026-04-20 12:22 | 49.45460 | 2.11227 | 350 ft | 120 kts | 123° |
| 2026-04-20 12:23 | 49.45099 | 2.12074 | 340 ft | 55 kts | 124° |
| 2026-04-20 12:23 | 49.44909 | 2.12508 | 328 ft | 40 kts | 126° |
| 2026-04-20 12:23 | 49.44754 | 2.12865 | 320 ft | 41 kts | 122° |
| 2026-04-20 12:23 | 49.44677 | 2.13081 | 317 ft | 21 kts | 104° |
| 2026-04-20 12:24 | 49.44657 | 2.13082 | 317 ft | 14 kts | 311° |
| 2026-04-20 12:24 | 49.44724 | 2.12939 | 318 ft | 19 kts | 302° |
| 2026-04-20 12:24 | 49.44806 | 2.12739 | 323 ft | 25 kts | 301° |
| 2026-04-20 12:24 | 49.44909 | 2.12489 | 330 ft | 31 kts | 304° |
| 2026-04-20 12:25 | 49.45032 | 2.12207 | 336 ft | 33 kts | 304° |
| 2026-04-20 12:25 | 49.45163 | 2.11911 | 344 ft | 34 kts | 304° |
| 2026-04-20 12:25 | 49.45302 | 2.11605 | 347 ft | 35 kts | 306° |
| 2026-04-20 12:25 | 49.45449 | 2.11320 | 356 ft | 9 kts | 301° |
| 2026-04-20 12:26 | 49.45454 | 2.11314 | 357 ft | 2 kts | 329° |
| 2026-04-20 12:26 | 49.45478 | 2.11327 | 350 ft | 5 kts | 39° |
| 2026-04-20 12:26 | 49.45515 | 2.11379 | 347 ft | 9 kts | 40° |
| 2026-04-20 12:26 | 49.45575 | 2.11462 | 352 ft | 13 kts | 40° |
| 2026-04-20 12:27 | 49.45650 | 2.11562 | 356 ft | 15 kts | 39° |
| 2026-04-20 12:27 | 49.45748 | 2.11581 | 354 ft | 16 kts | 329° |
| 2026-04-20 12:27 | 49.45791 | 2.11437 | 352 ft | 17 kts | 239° |
| 2026-04-20 12:27 | 49.45707 | 2.11311 | 356 ft | 17 kts | 245° |
| 2026-04-20 12:28 | 49.45748 | 2.11143 | 353 ft | 18 kts | 301° |
| 2026-04-20 12:28 | 49.45800 | 2.11093 | 354 ft | 6 kts | 22° |
| 2026-04-20 12:28 | 49.45815 | 2.11105 | 356 ft | 0 kts | 31° |
| 2026-04-20 12:28 | 49.45816 | 2.11106 | 361 ft | 1 kts | 33° |
| 2026-04-20 12:29 | 49.45824 | 2.11114 | 358 ft | 2 kts | 31° |
| 2026-04-20 12:29 | 49.45828 | 2.11118 | 354 ft | 0 kts | 31° |